Time;durP1;ratioP1;P1;durP2;ratioP2;P2;SDS_P1;SDS_P2;PMS_P1;PMS_P2;Temp;Humidity;BMP_temperature;BMP_pressure;BME280_temperature;BME280_humidity;BME280_pressure;Samples;Min_cycle;Max_cycle;Signal;HPM_P1;HPM_P2
2022/01/29 00:00:35;;;;;;;12.32;6.15;;;;;;;;;;5024319;28;20459;-81
2022/01/29 00:03:00;;;;;;;10.68;5.93;;;;;;;;;;5025777;28;20038;-80
2022/01/29 00:05:26;;;;;;;11.88;6.07;;;;;;;;;;5022902;28;20097;-80
2022/01/29 00:07:51;;;;;;;12.23;5.93;;;;;;;;;;5025563;28;20018;-82
2022/01/29 00:10:17;;;;;;;13.32;5.88;;;;;;;;;;5026200;28;20024;-83
2022/01/29 00:12:42;;;;;;;11.73;6.00;;;;;;;;;;5025191;28;20036;-84
2022/01/29 00:15:09;;;;;;;11.20;5.65;;;;;;;;;;5024904;28;20117;-83
2022/01/29 00:17:34;;;;;;;8.20;5.88;;;;;;;;;;5026424;28;20018;-83
2022/01/29 00:19:59;;;;;;;11.80;6.22;;;;;;;;;;5024401;28;20036;-83
2022/01/29 00:22:25;;;;;;;10.75;6.60;;;;;;;;;;5025966;28;20277;-82
2022/01/29 00:24:51;;;;;;;8.88;6.00;;;;;;;;;;5025805;28;20034;-81
2022/01/29 00:27:18;;;;;;;14.25;6.05;;;;;;;;;;5026483;28;20029;-82
2022/01/29 00:29:44;;;;;;;13.20;6.40;;;;;;;;;;5026245;28;20029;-83
2022/01/29 00:32:10;;;;;;;14.02;7.15;;;;;;;;;;5026035;28;20614;-81
2022/01/29 00:34:36;;;;;;;12.07;6.97;;;;;;;;;;5023434;28;20021;-83
2022/01/29 00:37:02;;;;;;;13.45;6.18;;;;;;;;;;5007863;28;20085;-83
2022/01/29 00:39:27;;;;;;;11.65;6.40;;;;;;;;;;5026529;28;20013;-83
2022/01/29 00:41:53;;;;;;;11.13;6.18;;;;;;;;;;5025913;28;20104;-80
2022/01/29 00:44:19;;;;;;;11.40;6.55;;;;;;;;;;5024414;28;20034;-82
2022/01/29 00:46:44;;;;;;;10.48;6.25;;;;;;;;;;5025444;28;20029;-81
2022/01/29 00:49:11;;;;;;;11.57;5.60;;;;;;;;;;5026311;28;20022;-82
2022/01/29 00:51:37;;;;;;;10.95;6.35;;;;;;;;;;5026367;28;20049;-81
2022/01/29 00:54:02;;;;;;;10.18;5.85;;;;;;;;;;5025499;28;20021;-82
2022/01/29 00:56:28;;;;;;;12.18;5.80;;;;;;;;;;5025552;28;20032;-81
2022/01/29 00:58:53;;;;;;;15.07;6.03;;;;;;;;;;5025836;28;20022;-82
2022/01/29 01:01:19;;;;;;;9.85;6.07;;;;;;;;;;5024810;28;20021;-83
2022/01/29 01:03:44;;;;;;;12.80;5.47;;;;;;;;;;5025350;28;20030;-82
2022/01/29 01:06:10;;;;;;;8.00;5.78;;;;;;;;;;5023195;28;20098;-82
2022/01/29 01:08:35;;;;;;;9.55;5.93;;;;;;;;;;5007946;28;20033;-82
2022/01/29 01:11:02;;;;;;;11.85;6.72;;;;;;;;;;5026589;28;20492;-82
2022/01/29 01:13:28;;;;;;;11.55;5.85;;;;;;;;;;5025576;28;20033;-82
2022/01/29 01:15:53;;;;;;;13.90;6.82;;;;;;;;;;5026323;28;20045;-82
2022/01/29 01:18:19;;;;;;;11.88;6.72;;;;;;;;;;5018996;28;20068;-82
2022/01/29 01:20:45;;;;;;;11.70;7.00;;;;;;;;;;5018743;28;20401;-83
2022/01/29 01:23:10;;;;;;;14.60;7.82;;;;;;;;;;5018485;28;20456;-83
2022/01/29 01:25:37;;;;;;;13.05;7.22;;;;;;;;;;5019194;28;20058;-84
2022/01/29 01:28:02;;;;;;;12.95;7.53;;;;;;;;;;5001305;28;20112;-84
2022/01/29 01:30:28;;;;;;;13.90;7.05;;;;;;;;;;5001378;28;20057;-81
2022/01/29 01:32:53;;;;;;;13.10;7.88;;;;;;;;;;5023213;28;20038;-83
2022/01/29 01:35:27;;;;;;;13.05;7.53;;;;;;;;;;5017167;28;20543;-81
2022/01/29 01:38:01;;;;;;;15.20;7.78;;;;;;;;;;5014383;28;20056;-81
2022/01/29 01:40:28;;;;;;;17.85;7.57;;;;;;;;;;5015059;28;20036;-81
2022/01/29 01:42:59;;;;;;;12.80;7.15;;;;;;;;;;5018423;28;20085;-82
2022/01/29 01:45:25;;;;;;;12.35;6.88;;;;;;;;;;5019883;28;20091;-83
2022/01/29 01:47:50;;;;;;;9.77;6.63;;;;;;;;;;4996285;28;20516;-80
2022/01/29 01:50:16;;;;;;;12.88;6.70;;;;;;;;;;5015023;28;20022;-84
2022/01/29 01:52:42;;;;;;;13.88;6.63;;;;;;;;;;5018256;28;20026;-83
2022/01/29 01:55:07;;;;;;;12.85;7.15;;;;;;;;;;5018662;28;20037;-84
2022/01/29 01:57:33;;;;;;;14.52;6.47;;;;;;;;;;5018662;28;20029;-85
2022/01/29 01:59:58;;;;;;;15.45;7.35;;;;;;;;;;5017459;28;20030;-83
2022/01/29 02:02:24;;;;;;;12.27;6.80;;;;;;;;;;5026208;28;20030;-81
2022/01/29 02:04:49;;;;;;;11.88;6.90;;;;;;;;;;5017854;28;20165;-82
2022/01/29 02:07:17;;;;;;;14.68;7.10;;;;;;;;;;5016145;28;20084;-81
2022/01/29 02:09:43;;;;;;;10.80;6.78;;;;;;;;;;5015815;28;20026;-82
2022/01/29 02:12:10;;;;;;;12.00;6.38;;;;;;;;;;5014229;28;20026;-81
2022/01/29 02:14:35;;;;;;;13.57;7.25;;;;;;;;;;5015451;28;20041;-82
2022/01/29 02:17:02;;;;;;;12.50;6.35;;;;;;;;;;5014519;28;20472;-83
2022/01/29 02:19:28;;;;;;;11.52;6.15;;;;;;;;;;5016243;28;20029;-83
2022/01/29 02:21:54;;;;;;;11.55;6.20;;;;;;;;;;5016399;28;20022;-84
2022/01/29 02:24:20;;;;;;;11.32;6.45;;;;;;;;;;5000191;28;20030;-84
2022/01/29 02:26:45;;;;;;;13.63;7.55;;;;;;;;;;5000249;28;20140;-83
2022/01/29 02:29:11;;;;;;;11.63;6.18;;;;;;;;;;5018251;28;20029;-81
2022/01/29 02:31:45;;;;;;;14.60;7.40;;;;;;;;;;5018385;28;20121;-84
2022/01/29 02:34:11;;;;;;;15.02;7.28;;;;;;;;;;5017955;28;20022;-83
2022/01/29 02:36:36;;;;;;;13.93;7.72;;;;;;;;;;5017178;28;20091;-84
2022/01/29 02:39:02;;;;;;;12.40;6.90;;;;;;;;;;5017917;28;20022;-84
2022/01/29 02:41:28;;;;;;;13.63;7.45;;;;;;;;;;5017353;28;20029;-82
2022/01/29 02:43:56;;;;;;;15.07;7.32;;;;;;;;;;5017832;28;20393;-82
2022/01/29 02:46:28;;;;;;;15.05;7.22;;;;;;;;;;5022237;28;20024;-82
2022/01/29 02:48:54;;;;;;;16.52;6.85;;;;;;;;;;5024352;28;20072;-82
2022/01/29 02:51:20;;;;;;;15.77;7.35;;;;;;;;;;5006802;28;20464;-83
2022/01/29 02:53:47;;;;;;;13.45;6.78;;;;;;;;;;5042168;28;20029;-81
2022/01/29 02:56:13;;;;;;;13.50;7.38;;;;;;;;;;5037993;28;20022;-83
2022/01/29 02:58:39;;;;;;;17.02;7.20;;;;;;;;;;5044059;28;20081;-83
2022/01/29 03:01:06;;;;;;;11.70;7.13;;;;;;;;;;5012974;28;20023;-82
2022/01/29 03:03:32;;;;;;;13.98;6.47;;;;;;;;;;5023353;28;20082;-82
2022/01/29 03:05:57;;;;;;;17.65;7.70;;;;;;;;;;5023130;28;20037;-82
2022/01/29 03:08:22;;;;;;;14.77;7.25;;;;;;;;;;5026912;28;20056;-82
2022/01/29 03:10:48;;;;;;;11.13;6.45;;;;;;;;;;5005543;28;20033;-83
2022/01/29 03:13:14;;;;;;;11.35;6.18;;;;;;;;;;5017319;28;20042;-83
2022/01/29 03:15:40;;;;;;;11.43;6.70;;;;;;;;;;5025313;28;20026;-83
2022/01/29 03:18:05;;;;;;;12.88;6.53;;;;;;;;;;5015707;28;20084;-82
2022/01/29 03:20:31;;;;;;;14.13;6.53;;;;;;;;;;5016974;28;20049;-84
2022/01/29 03:22:57;;;;;;;10.57;5.82;;;;;;;;;;4999117;28;20026;-82
2022/01/29 03:25:23;;;;;;;13.52;6.28;;;;;;;;;;5018200;28;20030;-83
2022/01/29 03:27:48;;;;;;;11.88;6.32;;;;;;;;;;5019273;28;20033;-82
2022/01/29 03:30:13;;;;;;;10.77;5.85;;;;;;;;;;5019847;28;20608;-83
2022/01/29 03:32:39;;;;;;;9.88;5.63;;;;;;;;;;5019070;28;20061;-83
2022/01/29 03:35:05;;;;;;;14.13;6.70;;;;;;;;;;5019279;28;20042;-81
2022/01/29 03:37:30;;;;;;;10.80;6.00;;;;;;;;;;5000954;28;20036;-82
2022/01/29 03:40:00;;;;;;;15.38;6.78;;;;;;;;;;5018657;28;20034;-83
2022/01/29 03:42:27;;;;;;;11.23;6.45;;;;;;;;;;5020405;28;20038;-82
2022/01/29 03:44:52;;;;;;;13.55;6.28;;;;;;;;;;5024174;28;20034;-81
2022/01/29 03:47:18;;;;;;;11.88;6.50;;;;;;;;;;5026155;28;20449;-82
2022/01/29 03:49:43;;;;;;;13.43;6.93;;;;;;;;;;5027400;28;20036;-83
2022/01/29 03:52:08;;;;;;;11.20;6.60;;;;;;;;;;5025402;28;20030;-83
2022/01/29 03:54:34;;;;;;;13.05;7.60;;;;;;;;;;5007187;28;20435;-82
2022/01/29 03:56:59;;;;;;;12.70;6.63;;;;;;;;;;5026289;28;20441;-83
2022/01/29 03:59:24;;;;;;;11.10;6.55;;;;;;;;;;5026468;28;20029;-83
2022/01/29 04:01:50;;;;;;;17.27;7.10;;;;;;;;;;5022184;28;20029;-81
2022/01/29 04:04:15;;;;;;;12.82;6.45;;;;;;;;;;5026229;28;20109;-83
2022/01/29 04:06:41;;;;;;;12.80;6.68;;;;;;;;;;5021681;28;20384;-82
2022/01/29 04:09:10;;;;;;;13.98;7.38;;;;;;;;;;5015480;28;20486;-81
2022/01/29 04:11:37;;;;;;;11.55;6.43;;;;;;;;;;5021641;28;20060;-80
2022/01/29 04:14:03;;;;;;;11.50;6.78;;;;;;;;;;5007264;28;20396;-81
2022/01/29 04:16:28;;;;;;;12.30;6.43;;;;;;;;;;5011765;23;20034;-82
2022/01/29 04:18:53;;;;;;;12.55;6.28;;;;;;;;;;4990659;28;20030;-83
2022/01/29 04:21:19;;;;;;;12.73;6.78;;;;;;;;;;4997795;28;20025;-82
2022/01/29 04:23:44;;;;;;;14.23;7.63;;;;;;;;;;4999084;28;20040;-84
2022/01/29 04:26:09;;;;;;;14.80;7.53;;;;;;;;;;4998234;28;20057;-82
2022/01/29 04:28:40;;;;;;;14.00;6.53;;;;;;;;;;4997960;28;20023;-83
2022/01/29 04:31:14;;;;;;;12.40;6.90;;;;;;;;;;4999294;28;20504;-80
2022/01/29 04:33:40;;;;;;;14.85;7.90;;;;;;;;;;4998727;28;20135;-84
2022/01/29 04:36:06;;;;;;;16.10;7.50;;;;;;;;;;4997661;28;20101;-83
2022/01/29 04:38:33;;;;;;;13.13;6.85;;;;;;;;;;4992485;28;20037;-83
2022/01/29 04:41:04;;;;;;;13.02;7.88;;;;;;;;;;4978373;28;20019;-82
2022/01/29 04:43:33;;;;;;;12.57;7.28;;;;;;;;;;4979900;28;20081;-84
2022/01/29 04:45:59;;;;;;;14.68;7.63;;;;;;;;;;4998455;28;20027;-84
2022/01/29 04:48:25;;;;;;;13.70;7.18;;;;;;;;;;4979765;28;20026;-82
2022/01/29 04:50:50;;;;;;;13.90;7.50;;;;;;;;;;4997469;28;20038;-81
2022/01/29 04:53:15;;;;;;;12.30;7.45;;;;;;;;;;4998476;28;20022;-83
2022/01/29 04:55:41;;;;;;;12.95;7.03;;;;;;;;;;4998648;28;20464;-82
2022/01/29 04:58:06;;;;;;;15.85;7.53;;;;;;;;;;4998808;28;20100;-83
2022/01/29 05:00:33;;;;;;;12.95;7.53;;;;;;;;;;4980474;28;20157;-82
2022/01/29 05:03:07;;;;;;;13.05;7.05;;;;;;;;;;4998322;28;20037;-82
2022/01/29 05:05:32;;;;;;;14.30;7.47;;;;;;;;;;4998985;28;20052;-84
2022/01/29 05:07:58;;;;;;;15.52;8.63;;;;;;;;;;4998111;28;20045;-84
2022/01/29 05:10:23;;;;;;;17.15;10.10;;;;;;;;;;4998811;28;20053;-81
2022/01/29 05:28:35;;;;;;;24.52;13.60;;;;;;;;;;4997429;28;20041;-83
2022/01/29 05:31:01;;;;;;;24.17;12.77;;;;;;;;;;4997890;28;20022;-81
2022/01/29 05:33:26;;;;;;;27.83;12.93;;;;;;;;;;4996547;28;20026;-83
2022/01/29 05:35:51;;;;;;;27.08;13.82;;;;;;;;;;4995951;28;20484;-83
2022/01/29 05:38:17;;;;;;;27.67;13.48;;;;;;;;;;4997715;28;20160;-82
2022/01/29 05:40:42;;;;;;;24.20;12.52;;;;;;;;;;4997015;28;20015;-83
2022/01/29 05:43:08;;;;;;;28.30;13.40;;;;;;;;;;4997734;28;20033;-83
2022/01/29 05:45:33;;;;;;;21.10;11.77;;;;;;;;;;4998073;28;20459;-83
2022/01/29 05:47:58;;;;;;;23.67;11.48;;;;;;;;;;4980710;28;20084;-83
2022/01/29 05:50:24;;;;;;;19.20;10.90;;;;;;;;;;4980299;28;20030;-81
2022/01/29 05:52:49;;;;;;;19.77;10.30;;;;;;;;;;4998506;28;20026;-83
2022/01/29 05:55:14;;;;;;;24.05;12.55;;;;;;;;;;4997897;28;20088;-83
2022/01/29 05:57:40;;;;;;;23.73;12.25;;;;;;;;;;4979872;28;20195;-83
2022/01/29 06:00:05;;;;;;;20.63;10.98;;;;;;;;;;4998712;28;20392;-83
2022/01/29 06:02:31;;;;;;;26.13;12.82;;;;;;;;;;4998257;28;20065;-85
2022/01/29 06:04:56;;;;;;;24.20;12.05;;;;;;;;;;4980529;28;20034;-81
2022/01/29 06:07:22;;;;;;;21.70;12.80;;;;;;;;;;4997319;28;20053;-83
2022/01/29 06:09:48;;;;;;;28.05;14.20;;;;;;;;;;4977956;28;20023;-82
2022/01/29 06:12:13;;;;;;;27.02;12.55;;;;;;;;;;4996970;28;20031;-84
2022/01/29 06:14:39;;;;;;;28.08;12.77;;;;;;;;;;4996868;28;20499;-82
2022/01/29 06:17:04;;;;;;;28.52;12.00;;;;;;;;;;4997305;28;20030;-83
2022/01/29 06:19:30;;;;;;;22.98;12.05;;;;;;;;;;4997050;28;20023;-85
2022/01/29 06:21:55;;;;;;;24.10;12.38;;;;;;;;;;4976351;28;20496;-85
2022/01/29 06:24:21;;;;;;;28.42;13.02;;;;;;;;;;4995215;28;20038;-85
2022/01/29 06:26:47;;;;;;;24.52;12.20;;;;;;;;;;4997163;28;20026;-85
2022/01/29 06:29:12;;;;;;;22.52;12.25;;;;;;;;;;4997627;28;20052;-84
2022/01/29 06:31:37;;;;;;;23.95;12.75;;;;;;;;;;4979764;28;20026;-84
2022/01/29 06:34:03;;;;;;;25.67;13.07;;;;;;;;;;4978839;28;20026;-84
2022/01/29 06:36:28;;;;;;;26.70;14.05;;;;;;;;;;4979514;28;20476;-83
2022/01/29 06:38:53;;;;;;;19.77;11.50;;;;;;;;;;4980076;28;20033;-84
2022/01/29 06:41:19;;;;;;;24.63;12.90;;;;;;;;;;4996693;28;20018;-81
2022/01/29 06:43:44;;;;;;;25.10;12.88;;;;;;;;;;4990729;28;20030;-81
2022/01/29 06:46:09;;;;;;;24.75;12.68;;;;;;;;;;4975783;28;20029;-81
2022/01/29 06:48:35;;;;;;;24.23;11.82;;;;;;;;;;4992689;28;20022;-81
2022/01/29 06:51:00;;;;;;;24.98;12.50;;;;;;;;;;4993854;28;20097;-81
2022/01/29 06:53:26;;;;;;;24.27;12.20;;;;;;;;;;4994160;28;20110;-81
2022/01/29 06:55:51;;;;;;;26.83;12.50;;;;;;;;;;4994750;28;20444;-80
2022/01/29 06:58:16;;;;;;;20.10;11.45;;;;;;;;;;4978592;28;20027;-82
2022/01/29 07:00:42;;;;;;;22.67;12.20;;;;;;;;;;4978389;28;20032;-82
2022/01/29 07:03:07;;;;;;;23.58;12.93;;;;;;;;;;4996952;28;20046;-82
2022/01/29 07:05:32;;;;;;;21.17;12.07;;;;;;;;;;5008491;28;20029;-82
2022/01/29 07:07:58;;;;;;;20.70;11.95;;;;;;;;;;5007965;28;20414;-82
2022/01/29 07:10:23;;;;;;;20.90;12.48;;;;;;;;;;5006396;28;20027;-81
2022/01/29 07:12:49;;;;;;;23.27;11.25;;;;;;;;;;5005318;28;20436;-81
2022/01/29 07:15:14;;;;;;;23.90;12.30;;;;;;;;;;5002734;28;20507;-82
2022/01/29 07:17:40;;;;;;;20.52;12.15;;;;;;;;;;4998156;28;20026;-81
2022/01/29 07:20:06;;;;;;;23.98;11.25;;;;;;;;;;4998722;28;20033;-81
2022/01/29 07:22:32;;;;;;;21.08;12.40;;;;;;;;;;4998722;28;20023;-82
2022/01/29 07:24:57;;;;;;;21.25;12.32;;;;;;;;;;5001387;28;20034;-83
2022/01/29 07:27:23;;;;;;;20.00;11.25;;;;;;;;;;5006263;28;20050;-82
2022/01/29 07:29:48;;;;;;;22.65;12.82;;;;;;;;;;5007842;28;20022;-82
2022/01/29 07:32:14;;;;;;;24.48;12.45;;;;;;;;;;4988196;28;20557;-83
2022/01/29 07:34:39;;;;;;;19.25;10.88;;;;;;;;;;4984905;28;20073;-83
2022/01/29 07:37:04;;;;;;;22.27;11.57;;;;;;;;;;4989017;28;20034;-82
2022/01/29 07:39:30;;;;;;;22.38;11.63;;;;;;;;;;5008069;28;20037;-83
2022/01/29 07:41:56;;;;;;;19.27;10.43;;;;;;;;;;5006512;28;20034;-81
2022/01/29 07:44:23;;;;;;;14.82;9.10;;;;;;;;;;4984920;28;20097;-82
2022/01/29 07:46:48;;;;;;;14.52;9.20;;;;;;;;;;5003059;28;20030;-82
2022/01/29 07:49:14;;;;;;;15.00;8.63;;;;;;;;;;5005934;28;20018;-81
2022/01/29 07:51:39;;;;;;;12.95;8.48;;;;;;;;;;5007639;28;20069;-83
2022/01/29 07:54:06;;;;;;;14.15;8.63;;;;;;;;;;4988861;28;20053;-86
2022/01/29 07:56:31;;;;;;;15.48;8.32;;;;;;;;;;4999924;28;20112;-82
2022/01/29 07:58:57;;;;;;;12.63;7.20;;;;;;;;;;5005828;28;20480;-82
2022/01/29 08:01:22;;;;;;;16.45;7.82;;;;;;;;;;5006817;28;20028;-82
2022/01/29 08:03:50;;;;;;;11.45;5.65;;;;;;;;;;5005023;28;20380;-82
2022/01/29 08:06:17;;;;;;;9.57;5.85;;;;;;;;;;4985256;28;20025;-81
2022/01/29 08:08:42;;;;;;;7.85;5.13;;;;;;;;;;4986113;28;20559;-81
2022/01/29 08:11:09;;;;;;;8.70;5.05;;;;;;;;;;4984542;28;20050;-81
2022/01/29 08:13:35;;;;;;;12.38;4.95;;;;;;;;;;5003240;28;20085;-81
2022/01/29 08:16:01;;;;;;;7.78;4.63;;;;;;;;;;5002481;28;20491;-81
2022/01/29 08:18:27;;;;;;;7.45;4.57;;;;;;;;;;5002391;28;20022;-81
2022/01/29 08:20:52;;;;;;;10.60;4.18;;;;;;;;;;5002540;28;20080;-81
2022/01/29 08:23:18;;;;;;;5.60;3.47;;;;;;;;;;5003770;28;20042;-82
2022/01/29 08:25:43;;;;;;;6.55;3.50;;;;;;;;;;5001163;28;20029;-82
2022/01/29 08:28:09;;;;;;;6.88;3.58;;;;;;;;;;5004100;28;20040;-81
2022/01/29 08:30:34;;;;;;;6.07;3.00;;;;;;;;;;5003855;28;20032;-82
2022/01/29 08:33:00;;;;;;;5.60;3.22;;;;;;;;;;5003426;28;20463;-85
2022/01/29 08:35:26;;;;;;;5.15;3.05;;;;;;;;;;4980001;28;20026;-84
2022/01/29 08:37:53;;;;;;;4.10;2.67;;;;;;;;;;4988248;28;20031;-84
2022/01/29 08:40:19;;;;;;;5.63;2.90;;;;;;;;;;5008870;28;20029;-83
2022/01/29 08:42:44;;;;;;;3.88;2.67;;;;;;;;;;5007797;28;20022;-84
2022/01/29 08:45:10;;;;;;;3.88;2.83;;;;;;;;;;5006424;28;20029;-83
2022/01/29 08:47:35;;;;;;;4.35;2.58;;;;;;;;;;5007233;28;20026;-83
2022/01/29 08:50:03;;;;;;;6.20;2.80;;;;;;;;;;4986815;28;20030;-83
2022/01/29 08:52:29;;;;;;;8.05;2.75;;;;;;;;;;4989227;28;20029;-82
2022/01/29 08:54:54;;;;;;;6.55;2.33;;;;;;;;;;5006008;28;20022;-82
2022/01/29 08:57:20;;;;;;;6.38;2.83;;;;;;;;;;5004577;28;20041;-82
2022/01/29 08:59:45;;;;;;;5.93;2.92;;;;;;;;;;5007139;28;20424;-82
2022/01/29 09:02:10;;;;;;;5.38;2.72;;;;;;;;;;5004877;28;20030;-83
2022/01/29 09:04:36;;;;;;;7.15;2.35;;;;;;;;;;4985107;28;20477;-83
2022/01/29 09:07:01;;;;;;;5.13;2.70;;;;;;;;;;4999647;28;20031;-83
2022/01/29 09:09:27;;;;;;;8.48;3.60;;;;;;;;;;5008152;28;20027;-83
2022/01/29 09:11:53;;;;;;;4.38;2.80;;;;;;;;;;5006530;28;20039;-83
2022/01/29 09:14:20;;;;;;;3.30;2.50;;;;;;;;;;5005551;28;20057;-83
2022/01/29 09:16:45;;;;;;;4.40;2.17;;;;;;;;;;5006044;28;20033;-85
2022/01/29 09:19:11;;;;;;;9.25;2.90;;;;;;;;;;5005694;28;20030;-82
2022/01/29 09:21:36;;;;;;;6.78;3.00;;;;;;;;;;5007056;28;20081;-83
2022/01/29 09:24:02;;;;;;;6.10;3.33;;;;;;;;;;5006666;28;20034;-82
2022/01/29 09:26:27;;;;;;;3.10;2.50;;;;;;;;;;5008362;28;20034;-83
2022/01/29 09:28:53;;;;;;;4.93;2.60;;;;;;;;;;5006313;28;20026;-82
2022/01/29 09:31:19;;;;;;;2.72;2.35;;;;;;;;;;5007533;28;20061;-82
2022/01/29 09:33:44;;;;;;;4.22;2.60;;;;;;;;;;5007113;28;20033;-82
2022/01/29 09:36:10;;;;;;;5.40;3.17;;;;;;;;;;5007177;28;20015;-81
2022/01/29 09:38:36;;;;;;;3.80;2.50;;;;;;;;;;5006403;28;20081;-82
2022/01/29 09:41:03;;;;;;;5.53;2.83;;;;;;;;;;5005569;28;20108;-82
2022/01/29 09:43:31;;;;;;;6.47;3.88;;;;;;;;;;4987716;28;20504;-82
2022/01/29 09:45:57;;;;;;;3.97;2.40;;;;;;;;;;4988998;28;20018;-82
2022/01/29 09:48:25;;;;;;;6.05;2.90;;;;;;;;;;5008521;28;20014;-82
2022/01/29 09:50:52;;;;;;;6.00;2.85;;;;;;;;;;4989716;28;20030;-83
2022/01/29 09:53:18;;;;;;;5.47;2.75;;;;;;;;;;5005600;28;20022;-82
2022/01/29 09:55:45;;;;;;;4.45;2.90;;;;;;;;;;5005728;28;20025;-83
2022/01/29 09:58:10;;;;;;;3.65;2.60;;;;;;;;;;5008552;28;20022;-82
2022/01/29 10:00:37;;;;;;;4.38;2.78;;;;;;;;;;5009202;28;20028;-82
2022/01/29 10:03:11;;;;;;;5.25;3.25;;;;;;;;;;5008074;28;20031;-81
2022/01/29 10:05:40;;;;;;;5.45;3.08;;;;;;;;;;5009256;28;20052;-82
2022/01/29 10:08:06;;;;;;;5.25;2.78;;;;;;;;;;4989199;28;20026;-83
2022/01/29 10:10:47;;;;;;;4.75;3.13;;;;;;;;;;5007709;28;20038;-82
2022/01/29 10:13:30;;;;;;;6.53;3.00;;;;;;;;;;5002878;28;20034;-81
2022/01/29 10:16:27;;;;;;;3.35;2.58;;;;;;;;;;5005395;28;20038;-82
2022/01/29 10:19:07;;;;;;;4.43;2.80;;;;;;;;;;5007545;28;20027;-82
2022/01/29 10:21:35;;;;;;;11.07;2.92;;;;;;;;;;4991328;28;20117;-82
2022/01/29 10:26:40;;;;;;;4.45;2.30;;;;;;;;;;4993511;28;20042;-85
2022/01/29 10:29:09;;;;;;;4.40;2.60;;;;;;;;;;4972162;28;20027;-85
2022/01/29 10:31:38;;;;;;;4.78;2.47;;;;;;;;;;4976276;28;20069;-85
2022/01/29 10:37:20;;;;;;;5.18;2.92;;;;;;;;;;4992037;28;20026;-84
2022/01/29 10:40:00;;;;;;;3.67;2.72;;;;;;;;;;5015261;28;20049;-86
2022/01/29 10:42:32;;;;;;;3.58;2.53;;;;;;;;;;5013841;28;20014;-87
2022/01/29 10:45:09;;;;;;;3.80;2.58;;;;;;;;;;4994934;28;20104;-85
2022/01/29 10:47:57;;;;;;;3.63;2.35;;;;;;;;;;5015533;28;20037;-86
2022/01/29 10:50:26;;;;;;;4.68;2.72;;;;;;;;;;5011422;28;20077;-84
2022/01/29 10:52:53;;;;;;;5.60;2.60;;;;;;;;;;4991859;28;20006;-83
2022/01/29 10:55:21;;;;;;;4.03;2.60;;;;;;;;;;5002045;28;20018;-84
2022/01/29 10:57:53;;;;;;;4.25;2.55;;;;;;;;;;5011551;28;20038;-84
2022/01/29 11:00:24;;;;;;;4.75;2.67;;;;;;;;;;5018441;28;20037;-86
2022/01/29 11:02:53;;;;;;;5.30;2.83;;;;;;;;;;5009274;28;20023;-85
2022/01/29 11:05:19;;;;;;;6.20;2.85;;;;;;;;;;5011567;28;20030;-85
2022/01/29 11:07:51;;;;;;;5.53;3.00;;;;;;;;;;5006921;28;20112;-84
2022/01/29 11:10:18;;;;;;;6.72;2.97;;;;;;;;;;5014775;28;20077;-84
2022/01/29 11:12:49;;;;;;;3.53;2.58;;;;;;;;;;5001678;28;20031;-85
2022/01/29 11:15:16;;;;;;;4.00;2.65;;;;;;;;;;4969501;28;20023;-86
2022/01/29 11:17:43;;;;;;;3.90;2.70;;;;;;;;;;4992339;28;20021;-84
2022/01/29 11:20:10;;;;;;;7.72;2.70;;;;;;;;;;4995627;28;20097;-86
2022/01/29 11:22:41;;;;;;;3.53;2.50;;;;;;;;;;4989234;28;20031;-85
2022/01/29 11:25:08;;;;;;;3.58;2.25;;;;;;;;;;4991640;28;20037;-86
2022/01/29 11:27:37;;;;;;;4.32;2.28;;;;;;;;;;4980856;28;20084;-86
2022/01/29 11:30:07;;;;;;;6.15;2.65;;;;;;;;;;4994073;28;20050;-85
2022/01/29 11:32:35;;;;;;;4.70;2.72;;;;;;;;;;4982438;28;20497;-85
2022/01/29 11:35:06;;;;;;;4.90;2.90;;;;;;;;;;4992020;28;20114;-86
2022/01/29 11:37:39;;;;;;;4.93;2.63;;;;;;;;;;4980836;28;20445;-86
2022/01/29 11:40:15;;;;;;;6.65;2.70;;;;;;;;;;4979600;28;20026;-86
2022/01/29 11:43:15;;;;;;;5.25;2.42;;;;;;;;;;4988127;28;20429;-86
2022/01/29 11:45:52;;;;;;;3.10;2.20;;;;;;;;;;4995501;28;20022;-85
2022/01/29 11:48:24;;;;;;;3.70;2.45;;;;;;;;;;4999474;28;20041;-87
2022/01/29 11:50:51;;;;;;;4.47;2.40;;;;;;;;;;4992426;28;20030;-85
2022/01/29 11:53:18;;;;;;;4.57;2.50;;;;;;;;;;4993301;28;20026;-85
2022/01/29 11:55:46;;;;;;;2.83;2.00;;;;;;;;;;5001402;28;20093;-86
2022/01/29 11:58:17;;;;;;;4.45;2.13;;;;;;;;;;4996208;28;20027;-87
2022/01/29 12:00:45;;;;;;;3.92;2.33;;;;;;;;;;5003584;28;20022;-87
2022/01/29 12:03:39;;;;;;;3.05;2.20;;;;;;;;;;5005122;28;20030;-84
2022/01/29 12:06:29;;;;;;;4.35;2.47;;;;;;;;;;4975788;28;20038;-86
2022/01/29 12:09:04;;;;;;;7.25;2.55;;;;;;;;;;5004021;28;20030;-87
2022/01/29 12:11:32;;;;;;;6.32;2.25;;;;;;;;;;4971521;28;20049;-86
2022/01/29 12:17:52;;;;;;;4.35;2.08;;;;;;;;;;4924790;29;20545;-88
2022/01/29 12:20:33;;;;;;;5.15;2.38;;;;;;;;;;4914980;29;20044;-89
2022/01/29 12:23:07;;;;;;;1.80;1.70;;;;;;;;;;4923689;29;20028;-88
2022/01/29 12:25:33;;;;;;;2.65;2.00;;;;;;;;;;4942571;28;20551;-87
2022/01/29 12:28:01;;;;;;;1.83;1.55;;;;;;;;;;4964980;28;20034;-88
2022/01/29 12:30:35;;;;;;;5.28;1.58;;;;;;;;;;4976653;28;20070;-88
2022/01/29 12:34:01;;;;;;;3.85;1.58;;;;;;;;;;4999608;28;20026;-86
2022/01/29 12:36:35;;;;;;;2.28;1.45;;;;;;;;;;4986777;28;20045;-88
2022/01/29 12:39:04;;;;;;;1.33;1.23;;;;;;;;;;4989205;28;20034;-83
2022/01/29 12:41:37;;;;;;;2.97;1.45;;;;;;;;;;5005418;28;20030;-83
2022/01/29 12:44:08;;;;;;;1.90;1.50;;;;;;;;;;4999434;28;20030;-85
2022/01/29 12:46:34;;;;;;;1.88;1.23;;;;;;;;;;4998396;28;20540;-85
2022/01/29 12:49:12;;;;;;;1.60;1.48;;;;;;;;;;4997490;28;20116;-85
2022/01/29 12:51:51;;;;;;;2.47;1.55;;;;;;;;;;4996320;28;20030;-85
2022/01/29 12:54:18;;;;;;;3.45;1.70;;;;;;;;;;5001990;28;20048;-86
2022/01/29 12:56:44;;;;;;;2.95;1.63;;;;;;;;;;4981456;28;20503;-86
2022/01/29 12:59:11;;;;;;;5.15;1.98;;;;;;;;;;4994373;28;20057;-87
2022/01/29 13:01:38;;;;;;;2.25;1.80;;;;;;;;;;4990973;28;20076;-85
2022/01/29 13:04:12;;;;;;;2.47;1.50;;;;;;;;;;4971945;28;20132;-85
2022/01/29 13:06:37;;;;;;;4.00;2.00;;;;;;;;;;4987744;28;20026;-86
2022/01/29 13:09:19;;;;;;;4.03;1.95;;;;;;;;;;4977433;28;20037;-86
2022/01/29 13:11:46;;;;;;;4.43;1.88;;;;;;;;;;4996249;28;20424;-87
2022/01/29 13:14:17;;;;;;;5.43;1.60;;;;;;;;;;4986256;28;20030;-85
2022/01/29 13:16:45;;;;;;;2.00;1.75;;;;;;;;;;4968740;28;20099;-86
2022/01/29 13:19:10;;;;;;;1.88;1.42;;;;;;;;;;4993240;28;20090;-86
2022/01/29 13:21:36;;;;;;;4.18;2.30;;;;;;;;;;4980324;28;20054;-86
2022/01/29 13:24:25;;;;;;;3.17;2.03;;;;;;;;;;4992283;28;20023;-86
2022/01/29 13:27:24;;;;;;;3.85;2.10;;;;;;;;;;4977229;28;20041;-88
2022/01/29 13:29:59;;;;;;;3.00;1.80;;;;;;;;;;4998776;28;20030;-87
2022/01/29 13:32:33;;;;;;;2.35;2.10;;;;;;;;;;5001298;28;20019;-87
2022/01/29 13:35:26;;;;;;;5.65;2.28;;;;;;;;;;5001040;28;20086;-84
2022/01/29 13:38:00;;;;;;;3.20;1.70;;;;;;;;;;4989179;28;20021;-85
2022/01/29 13:40:40;;;;;;;2.72;1.60;;;;;;;;;;4972113;28;20062;-85
2022/01/29 13:53:46;;;;;;;2.45;1.77;;;;;;;;;;4984790;28;20109;-85
2022/01/29 13:56:19;;;;;;;4.97;2.10;;;;;;;;;;4961905;28;20600;-86
2022/01/29 13:58:47;;;;;;;1.80;1.63;;;;;;;;;;4967170;28;20412;-86
2022/01/29 14:01:14;;;;;;;4.88;2.00;;;;;;;;;;4952348;28;20388;-86
2022/01/29 14:03:50;;;;;;;2.50;1.70;;;;;;;;;;4971956;28;20033;-87
2022/01/29 14:06:27;;;;;;;1.98;1.75;;;;;;;;;;4957749;28;20042;-86
2022/01/29 14:09:15;;;;;;;4.82;1.75;;;;;;;;;;4961478;28;20066;-87
2022/01/29 14:11:56;;;;;;;1.88;1.55;;;;;;;;;;4947643;29;20133;-86
2022/01/29 14:14:24;;;;;;;2.38;1.58;;;;;;;;;;4963179;29;20019;-87
2022/01/29 14:16:49;;;;;;;3.30;1.42;;;;;;;;;;4945945;28;20500;-87
2022/01/29 14:19:16;;;;;;;4.18;1.80;;;;;;;;;;4958037;28;20122;-88
2022/01/29 14:21:43;;;;;;;3.03;1.85;;;;;;;;;;4975575;28;20479;-89
2022/01/29 14:24:10;;;;;;;2.38;1.35;;;;;;;;;;4959824;28;20027;-87
2022/01/29 14:26:35;;;;;;;2.65;1.88;;;;;;;;;;4978735;28;20022;-87
2022/01/29 14:29:01;;;;;;;2.70;1.70;;;;;;;;;;4977949;28;20023;-87
2022/01/29 14:31:26;;;;;;;2.17;1.42;;;;;;;;;;4976524;28;20031;-87
2022/01/29 14:33:54;;;;;;;4.05;1.92;;;;;;;;;;4959299;28;20034;-88
2022/01/29 14:36:20;;;;;;;1.55;1.30;;;;;;;;;;4960568;28;20031;-87
2022/01/29 14:38:45;;;;;;;2.40;1.73;;;;;;;;;;4978280;28;20034;-88
2022/01/29 14:41:11;;;;;;;3.70;1.80;;;;;;;;;;4977692;28;20019;-87
2022/01/29 14:43:36;;;;;;;3.00;1.77;;;;;;;;;;4958992;28;20054;-87
2022/01/29 14:46:04;;;;;;;2.92;2.08;;;;;;;;;;4976586;28;20019;-87
2022/01/29 14:48:29;;;;;;;2.83;1.40;;;;;;;;;;4959005;28;20027;-87
2022/01/29 14:50:55;;;;;;;3.63;1.40;;;;;;;;;;4960227;28;20034;-87
2022/01/29 14:53:22;;;;;;;1.75;1.27;;;;;;;;;;4959039;28;20084;-87
2022/01/29 14:55:48;;;;;;;2.20;1.70;;;;;;;;;;4955523;28;20133;-87
2022/01/29 14:58:13;;;;;;;1.50;1.23;;;;;;;;;;4957778;28;20111;-88
2022/01/29 15:00:39;;;;;;;3.78;1.30;;;;;;;;;;4968581;28;20156;-87
2022/01/29 15:03:04;;;;;;;1.42;1.30;;;;;;;;;;4977495;28;20023;-86
2022/01/29 15:05:31;;;;;;;1.38;1.27;;;;;;;;;;4980370;28;20103;-85
2022/01/29 15:07:56;;;;;;;1.85;1.33;;;;;;;;;;4974737;28;20039;-84
2022/01/29 15:10:25;;;;;;;1.10;1.05;;;;;;;;;;4977767;28;20456;-86
2022/01/29 15:12:50;;;;;;;1.25;1.10;;;;;;;;;;4969194;28;20034;-87